createdAt,value
2023-02-22T00:02:14.066Z,5.45
2023-02-22T00:05:31.581Z,4.35
2023-02-22T00:08:43.954Z,4.80
2023-02-22T00:11:56.556Z,5.47
2023-02-22T00:15:10.022Z,5.22
2023-02-22T00:18:22.635Z,5.53
2023-02-22T00:21:35.020Z,5.03
2023-02-22T00:24:48.430Z,4.70
2023-02-22T00:28:00.779Z,5.20
2023-02-22T00:31:14.955Z,5.60
2023-02-22T00:34:28.034Z,5.03
2023-02-22T00:37:44.232Z,6.15
2023-02-22T00:40:56.684Z,5.97
2023-02-22T00:44:09.857Z,5.30
2023-02-22T00:47:22.223Z,5.05
2023-02-22T00:50:35.020Z,4.50
2023-02-22T00:53:47.741Z,4.78
2023-02-22T00:57:00.389Z,4.70
2023-02-22T01:00:21.077Z,5.18
2023-02-22T01:03:35.333Z,5.10
2023-02-22T01:06:47.877Z,5.43
2023-02-22T01:10:01.903Z,5.25
2023-02-22T01:13:14.300Z,5.47
2023-02-22T01:16:26.906Z,5.95
2023-02-22T01:19:42.512Z,5.80
2023-02-22T01:22:56.382Z,5.00
2023-02-22T01:26:08.706Z,5.90
2023-02-22T01:29:21.701Z,5.60
2023-02-22T01:32:37.178Z,6.07
2023-02-22T01:35:50.964Z,5.47
2023-02-22T01:39:03.556Z,5.97
2023-02-22T01:42:16.527Z,5.90
2023-02-22T01:45:34.671Z,5.55
2023-02-22T01:48:50.880Z,5.25
2023-02-22T01:52:04.654Z,5.78
2023-02-22T01:55:17.430Z,6.05
2023-02-22T01:58:31.986Z,5.82
2023-02-22T02:01:44.789Z,6.25
2023-02-22T02:04:57.465Z,8.00
2023-02-22T02:08:30.219Z,7.10
2023-02-22T02:11:42.941Z,7.20
2023-02-22T02:15:25.608Z,7.80
2023-02-22T02:18:38.002Z,6.75
2023-02-22T02:22:08.205Z,5.85
2023-02-22T02:25:44.873Z,5.50
2023-02-22T02:29:31.541Z,5.65
2023-02-22T02:32:45.635Z,5.75
2023-02-22T02:36:09.693Z,5.57
2023-02-22T02:39:31.160Z,5.45
2023-02-22T02:43:25.845Z,5.50
2023-02-22T02:46:56.220Z,5.70
2023-02-22T02:50:17.295Z,5.62
2023-02-22T02:53:37.533Z,6.47
2023-02-22T02:56:50.660Z,6.75
2023-02-22T03:00:05.112Z,6.65
2023-02-22T03:03:20.344Z,6.57
2023-02-22T03:06:49.556Z,6.87
2023-02-22T03:10:18.240Z,6.80
2023-02-22T03:14:03.074Z,6.22
2023-02-22T03:17:45.694Z,7.35
2023-02-22T03:21:01.809Z,6.62
2023-02-22T03:24:22.160Z,6.25
2023-02-22T03:27:43.652Z,6.15
2023-02-22T03:31:10.909Z,7.32
2023-02-22T03:34:26.376Z,11.10
2023-02-22T03:37:42.558Z,8.48
2023-02-22T03:40:55.328Z,8.85
2023-02-22T03:44:09.680Z,8.00
2023-02-22T03:47:23.467Z,8.82
2023-02-22T03:50:36.940Z,7.97
2023-02-22T03:53:49.552Z,8.70
2023-02-22T03:57:12.718Z,7.87
2023-02-22T04:00:27.099Z,8.02
2023-02-22T04:03:40.423Z,7.28
2023-02-22T04:06:53.003Z,7.45
2023-02-22T04:10:08.608Z,8.05
2023-02-22T04:13:22.446Z,6.50
2023-02-22T04:16:35.853Z,6.12
2023-02-22T04:19:51.479Z,5.57
2023-02-22T04:23:04.515Z,6.50
2023-02-22T04:26:17.258Z,6.37
2023-02-22T04:29:30.866Z,7.35
2023-02-22T04:32:43.306Z,6.50
2023-02-22T04:35:58.272Z,10.85
2023-02-22T04:39:12.145Z,7.97
2023-02-22T04:42:24.837Z,7.03
2023-02-22T04:45:38.098Z,6.90
2023-02-22T04:48:51.302Z,6.50
2023-02-22T04:52:05.895Z,6.37
2023-02-22T04:55:18.808Z,6.55
2023-02-22T04:58:31.854Z,9.40
2023-02-22T05:01:44.632Z,9.32
2023-02-22T05:04:57.092Z,9.35
2023-02-22T05:08:09.758Z,11.32
2023-02-22T05:11:22.527Z,9.18
2023-02-22T05:14:35.551Z,12.88
2023-02-22T05:17:47.935Z,9.77
2023-02-22T05:21:00.628Z,9.52
2023-02-22T05:24:12.926Z,10.02
2023-02-22T05:27:25.801Z,10.32
2023-02-22T05:30:39.829Z,11.50
2023-02-22T05:33:52.812Z,10.18
2023-02-22T05:37:05.179Z,11.20
2023-02-22T05:40:22.355Z,11.73
2023-02-22T05:43:34.728Z,14.15
2023-02-22T05:46:47.434Z,22.60
2023-02-22T05:49:59.912Z,12.82
2023-02-22T05:53:12.540Z,13.43
2023-02-22T05:56:26.056Z,11.82
2023-02-22T05:59:38.714Z,11.70
2023-02-22T06:03:09.864Z,11.60
2023-02-22T06:06:23.911Z,11.38
2023-02-22T06:09:36.229Z,12.68
2023-02-22T06:12:49.208Z,14.73
2023-02-22T06:16:01.839Z,14.57
2023-02-22T06:19:14.487Z,12.15
2023-02-22T06:22:26.884Z,16.85
2023-02-22T06:25:39.534Z,14.80
2023-02-22T06:28:51.878Z,16.77
2023-02-22T06:32:04.732Z,15.50
2023-02-22T06:35:17.275Z,13.95
2023-02-22T06:38:29.924Z,12.85
2023-02-22T06:41:46.064Z,15.02
2023-02-22T06:44:58.686Z,14.53
2023-02-22T06:48:11.015Z,15.45
2023-02-22T06:51:23.650Z,15.18
2023-02-22T06:54:36.868Z,15.20
2023-02-22T06:57:49.537Z,14.43
2023-02-22T07:01:03.870Z,14.32
2023-02-22T07:04:16.681Z,13.18
2023-02-22T07:07:29.862Z,14.60
2023-02-22T07:10:42.555Z,9.10
2023-02-22T07:13:55.566Z,7.97
2023-02-22T07:17:11.685Z,11.25
2023-02-22T07:20:25.020Z,12.50
2023-02-22T07:23:38.198Z,13.98
2023-02-22T07:26:50.534Z,21.00
2023-02-22T07:30:03.650Z,20.25
2023-02-22T07:33:16.058Z,25.17
2023-02-22T07:36:28.752Z,17.37
2023-02-22T07:39:43.795Z,10.00
2023-02-22T07:43:01.091Z,9.88
2023-02-22T07:46:13.435Z,9.45
2023-02-22T07:49:26.056Z,9.77
2023-02-22T07:52:38.459Z,8.68
2023-02-22T07:55:51.958Z,8.35
2023-02-22T07:59:04.346Z,8.75
2023-02-22T08:02:17.152Z,9.50
2023-02-22T08:05:30.436Z,8.02
2023-02-22T08:08:42.963Z,7.30
2023-02-22T08:11:55.710Z,7.32
2023-02-22T08:15:09.188Z,6.80
2023-02-22T08:18:23.750Z,7.12
2023-02-22T08:21:36.115Z,6.75
2023-02-22T08:24:48.759Z,6.05
2023-02-22T08:28:12.037Z,6.82
2023-02-22T08:31:24.716Z,7.47
2023-02-22T08:36:34.680Z,6.47
2023-02-22T08:39:47.542Z,5.95
2023-02-22T08:43:00.016Z,5.85
2023-02-22T08:46:12.729Z,6.80
2023-02-22T08:49:25.111Z,6.35
2023-02-22T08:52:37.707Z,6.50
2023-02-22T08:55:50.035Z,6.10
2023-02-22T08:59:02.679Z,6.15
2023-02-22T09:02:16.175Z,6.35
2023-02-22T09:05:31.352Z,6.62
2023-02-22T09:08:44.167Z,6.35
2023-02-22T09:11:56.840Z,5.75
2023-02-22T09:15:09.673Z,6.20
2023-02-22T09:18:22.457Z,6.35
2023-02-22T09:21:34.906Z,6.22
2023-02-22T09:24:47.577Z,6.25
2023-02-22T09:28:00.135Z,6.35
2023-02-22T09:31:13.924Z,6.65
2023-02-22T09:34:29.771Z,6.40
2023-02-22T09:37:45.070Z,6.43
2023-02-22T09:41:23.893Z,5.75
2023-02-22T09:44:36.397Z,5.82
2023-02-22T09:48:08.190Z,5.62
2023-02-22T09:51:53.118Z,6.43
2023-02-22T09:55:12.841Z,6.35
2023-02-22T09:58:33.429Z,5.72
2023-02-22T10:01:47.630Z,9.80
2023-02-22T10:05:08.423Z,9.02
2023-02-22T10:08:21.807Z,11.00
2023-02-22T10:11:57.053Z,6.95
2023-02-22T10:15:24.528Z,6.60
2023-02-22T10:18:50.277Z,5.60
2023-02-22T10:22:21.717Z,5.53
2023-02-22T10:25:36.260Z,5.20
2023-02-22T10:29:22.247Z,5.57
2023-02-22T10:32:43.477Z,5.78
2023-02-22T10:35:55.843Z,5.70
2023-02-22T10:39:27.237Z,5.45
2023-02-22T10:42:39.661Z,6.53
2023-02-22T10:45:56.017Z,6.68
2023-02-22T10:49:08.528Z,6.32
2023-02-22T10:52:28.090Z,5.90
2023-02-22T10:56:06.161Z,6.50
2023-02-22T10:59:35.237Z,6.50
2023-02-22T11:03:01.066Z,6.80
2023-02-22T11:06:22.841Z,5.87
2023-02-22T11:09:52.601Z,5.97
2023-02-22T11:13:27.249Z,6.35
2023-02-22T11:16:43.853Z,5.78
2023-02-22T11:19:56.578Z,6.00
2023-02-22T11:23:08.915Z,5.53
2023-02-22T11:26:21.584Z,5.95
2023-02-22T11:29:37.495Z,5.80
2023-02-22T11:32:59.961Z,5.80
2023-02-22T11:36:16.538Z,5.60
2023-02-22T11:39:34.322Z,6.45
2023-02-22T11:42:46.883Z,5.85
2023-02-22T11:46:08.302Z,5.22
2023-02-22T11:49:25.510Z,5.62
2023-02-22T11:52:42.637Z,5.68
2023-02-22T11:56:02.016Z,9.02
2023-02-22T11:59:22.909Z,5.60
2023-02-22T12:03:02.010Z,6.12
2023-02-22T12:06:26.668Z,6.28
2023-02-22T12:09:56.388Z,5.62
2023-02-22T12:13:30.455Z,5.90
2023-02-22T12:17:15.065Z,5.50
2023-02-22T12:20:30.996Z,4.82
2023-02-22T12:23:54.797Z,5.80
2023-02-22T12:27:10.871Z,6.00
2023-02-22T12:30:28.927Z,5.80
2023-02-22T12:34:08.116Z,8.07
2023-02-22T12:37:27.917Z,5.00
2023-02-22T12:41:01.559Z,4.80
2023-02-22T12:44:22.949Z,7.03
2023-02-22T12:47:42.777Z,4.97
2023-02-22T12:51:02.375Z,5.30
2023-02-22T12:55:00.676Z,5.10
2023-02-22T12:58:19.173Z,6.00
2023-02-22T13:01:40.887Z,7.05
2023-02-22T13:04:53.280Z,6.00
2023-02-22T13:08:37.246Z,7.40
2023-02-22T13:12:11.438Z,5.20
2023-02-22T13:15:34.216Z,11.32
2023-02-22T13:18:55.573Z,5.53
2023-02-22T13:22:26.755Z,5.22
2023-02-22T13:25:44.198Z,5.32
2023-02-22T13:29:20.722Z,5.15
2023-02-22T13:32:56.068Z,5.25
2023-02-22T13:36:31.226Z,4.93
2023-02-22T13:40:06.652Z,6.10
2023-02-22T13:43:19.094Z,5.85
2023-02-22T13:46:43.731Z,5.10
2023-02-22T13:50:21.164Z,4.70
2023-02-22T13:53:43.800Z,6.03
2023-02-22T13:56:56.597Z,5.90
2023-02-22T14:00:41.429Z,5.37
2023-02-22T14:03:54.245Z,9.30
2023-02-22T14:07:18.846Z,7.78
2023-02-22T14:10:49.373Z,7.53
2023-02-22T14:14:01.584Z,7.82
2023-02-22T14:17:32.119Z,6.85
2023-02-22T14:20:44.475Z,6.70
2023-02-22T14:23:57.330Z,5.53
2023-02-22T14:27:09.872Z,6.05
2023-02-22T14:30:26.142Z,6.30
2023-02-22T14:33:57.251Z,8.57
2023-02-22T14:37:17.404Z,7.80
2023-02-22T14:40:31.071Z,8.75
2023-02-22T14:43:43.702Z,9.43
2023-02-22T14:46:57.084Z,9.13
2023-02-22T14:50:44.621Z,8.45
2023-02-22T14:54:18.641Z,9.05
2023-02-22T14:57:42.269Z,8.65
2023-02-22T15:00:56.885Z,8.95
2023-02-22T15:04:28.717Z,8.30
2023-02-22T15:07:51.690Z,9.55
2023-02-22T15:11:04.869Z,10.18
2023-02-22T15:14:26.691Z,10.18
2023-02-22T15:17:39.637Z,8.60
2023-02-22T15:20:56.222Z,8.45
2023-02-22T15:24:09.085Z,8.52
2023-02-22T15:27:21.406Z,8.40
2023-02-22T15:30:34.470Z,11.12
2023-02-22T15:33:47.184Z,11.02
2023-02-22T15:37:19.296Z,11.80
2023-02-22T15:40:34.291Z,12.23
2023-02-22T15:44:21.346Z,12.40
2023-02-22T15:51:06.823Z,11.75
2023-02-22T15:54:26.980Z,10.93
2023-02-22T15:57:40.610Z,10.57
2023-02-22T16:01:18.809Z,11.43
2023-02-22T16:04:31.800Z,11.32
2023-02-22T16:07:46.965Z,11.02
2023-02-22T16:11:03.612Z,12.68
2023-02-22T16:14:30.389Z,11.67
2023-02-22T16:17:55.999Z,10.55
2023-02-22T16:21:15.407Z,9.52
2023-02-22T16:24:29.798Z,8.70
2023-02-22T16:28:06.271Z,8.30
2023-02-22T16:31:25.273Z,8.40
2023-02-22T16:34:37.827Z,11.63
2023-02-22T16:37:51.777Z,11.93
2023-02-22T16:41:05.208Z,12.77
2023-02-22T16:44:17.871Z,12.25
2023-02-22T16:47:30.247Z,13.25
2023-02-22T16:50:42.873Z,15.65
2023-02-22T16:53:55.877Z,15.52
2023-02-22T16:57:21.093Z,15.20
2023-02-22T17:00:34.600Z,14.57
2023-02-22T17:03:47.920Z,14.20
2023-02-22T17:07:00.375Z,16.12
2023-02-22T17:10:17.421Z,16.42
2023-02-22T17:13:29.873Z,16.77
2023-02-22T17:16:42.516Z,16.62
2023-02-22T17:19:55.094Z,17.80
2023-02-22T17:23:08.932Z,21.67
2023-02-22T17:26:21.327Z,19.85
2023-02-22T17:29:33.948Z,17.27
2023-02-22T17:32:46.269Z,19.75
2023-02-22T17:35:59.559Z,15.55
2023-02-22T17:39:11.960Z,16.12
2023-02-22T17:42:24.534Z,15.95
2023-02-22T17:45:41.429Z,11.75
2023-02-22T17:52:09.625Z,11.18
2023-02-22T17:55:22.460Z,10.25
2023-02-22T17:58:34.839Z,10.35
2023-02-22T18:01:48.260Z,11.95
2023-02-22T18:05:01.409Z,12.48
2023-02-22T18:08:14.455Z,13.13
2023-02-22T18:11:27.988Z,15.50
2023-02-22T18:14:40.392Z,14.82
2023-02-22T18:17:53.167Z,12.18
2023-02-22T18:21:06.429Z,9.82
2023-02-22T18:24:19.071Z,9.63
2023-02-22T18:27:31.423Z,10.70
2023-02-22T18:30:44.270Z,12.60
2023-02-22T18:33:57.578Z,13.00
2023-02-22T18:37:10.260Z,15.90
2023-02-22T18:40:23.853Z,19.70
2023-02-22T18:43:36.548Z,19.25
2023-02-22T18:46:48.917Z,20.50
2023-02-22T18:50:01.531Z,18.85
2023-02-22T18:53:13.833Z,17.20
2023-02-22T18:56:30.155Z,13.43
2023-02-22T18:59:42.847Z,11.98
2023-02-22T19:02:57.711Z,10.93
2023-02-22T19:06:10.238Z,12.05
2023-02-22T19:09:23.094Z,12.80
2023-02-22T19:12:35.420Z,12.93
2023-02-22T19:15:49.031Z,11.50
2023-02-22T19:19:01.462Z,9.30
2023-02-22T19:22:17.110Z,8.90
2023-02-22T19:25:29.912Z,9.10
2023-02-22T19:28:42.529Z,9.45
2023-02-22T19:31:54.926Z,9.32
2023-02-22T19:35:08.440Z,9.68
2023-02-22T19:38:21.559Z,10.60
2023-02-22T19:41:34.247Z,9.70
2023-02-22T19:44:48.347Z,8.95
2023-02-22T19:48:00.971Z,8.77
2023-02-22T19:51:14.396Z,8.13
2023-02-22T19:54:27.519Z,8.98
2023-02-22T19:57:46.382Z,8.65
2023-02-22T20:00:59.066Z,9.40
2023-02-22T20:04:14.024Z,9.00
2023-02-22T20:07:26.414Z,10.38
2023-02-22T20:10:39.403Z,10.23
2023-02-22T20:13:51.729Z,9.25
2023-02-22T20:17:05.061Z,12.07
2023-02-22T20:20:18.252Z,11.07
2023-02-22T20:23:30.824Z,11.38
2023-02-22T20:26:43.282Z,9.18
2023-02-22T20:29:55.931Z,8.27
2023-02-22T20:33:10.313Z,8.52
2023-02-22T20:36:23.068Z,8.93
2023-02-22T20:39:35.419Z,8.27
2023-02-22T20:42:48.056Z,8.90
2023-02-22T20:46:04.002Z,8.02
2023-02-22T20:49:18.772Z,7.55
2023-02-22T20:52:31.196Z,6.70
2023-02-22T20:55:52.967Z,7.20
2023-02-22T20:59:05.381Z,9.25
2023-02-22T21:02:17.977Z,8.32
2023-02-22T21:05:32.018Z,6.50
2023-02-22T21:08:50.652Z,6.12
2023-02-22T21:15:15.509Z,6.45
2023-02-22T21:18:28.031Z,6.87
2023-02-22T21:21:40.588Z,7.03
2023-02-22T21:24:53.451Z,6.53
2023-02-22T21:28:06.071Z,6.32
2023-02-22T21:31:23.071Z,6.20
2023-02-22T21:34:36.352Z,5.97
2023-02-22T21:37:48.752Z,5.95
2023-02-22T21:41:03.272Z,6.37
2023-02-22T21:44:15.715Z,6.18
2023-02-22T21:47:31.196Z,5.93
2023-02-22T21:50:43.527Z,6.45
2023-02-22T21:53:56.309Z,5.85
2023-02-22T21:57:09.039Z,5.97
2023-02-22T22:00:29.350Z,5.90
2023-02-22T22:03:41.976Z,5.57
2023-02-22T22:06:54.715Z,5.37
2023-02-22T22:10:08.994Z,5.87
2023-02-22T22:13:25.549Z,5.75
2023-02-22T22:16:38.179Z,5.35
2023-02-22T22:19:51.745Z,5.95
2023-02-22T22:23:07.760Z,6.87
2023-02-22T22:26:20.242Z,7.85
2023-02-22T22:29:34.549Z,8.05
2023-02-22T22:32:47.072Z,11.50
2023-02-22T22:35:59.702Z,7.70
2023-02-22T22:39:14.871Z,6.47
2023-02-22T22:42:27.527Z,5.55
2023-02-22T22:45:41.009Z,6.00
2023-02-22T22:48:53.634Z,6.07
2023-02-22T22:52:09.221Z,6.45
2023-02-22T22:55:24.287Z,5.95
2023-02-22T22:58:36.666Z,5.30
2023-02-22T23:01:50.215Z,5.50
2023-02-22T23:05:02.548Z,6.37
2023-02-22T23:08:15.671Z,6.20
2023-02-22T23:11:29.355Z,6.25
2023-02-22T23:14:45.472Z,7.82
2023-02-22T23:17:59.292Z,7.50
2023-02-22T23:21:11.943Z,6.80
2023-02-22T23:24:27.285Z,7.55
2023-02-22T23:27:39.962Z,7.47
2023-02-22T23:30:52.339Z,7.18
2023-02-22T23:34:11.258Z,7.28
2023-02-22T23:37:23.979Z,7.15
2023-02-22T23:40:36.706Z,7.22
2023-02-22T23:43:49.324Z,7.30
2023-02-22T23:47:02.609Z,6.62
2023-02-22T23:50:15.055Z,7.47
2023-02-22T23:53:30.061Z,7.05
2023-02-22T23:56:53.669Z,6.75
